Time;durP1;ratioP1;P1;durP2;ratioP2;P2;SDS_P1;SDS_P2;PMS_P1;PMS_P2;Temp;Humidity;BMP_temperature;BMP_pressure;BME280_temperature;BME280_humidity;BME280_pressure;Samples;Min_cycle;Max_cycle;Signal;HPM_P1;HPM_P2
2023/12/02 00:00:48;;;;;;;;;;;;;;;25.85;39.64;92432.44;5063982;28;7023;-62
2023/12/02 00:03:17;;;;;;;;;;;;;;;25.86;39.64;92444.19;5072324;28;9223;-62
2023/12/02 00:06:09;;;;;;;;;;;;;;;25.82;40.05;92444.56;5064215;28;8855;-61
2023/12/02 00:08:44;;;;;;;;;;;;;;;25.82;39.85;92441.06;4981858;28;7419;-61
2023/12/02 00:11:36;;;;;;;;;;;;;;;25.82;40.47;92443.81;4972832;28;9067;-61
2023/12/02 00:14:22;;;;;;;;;;;;;;;25.81;40.32;92445.88;4988905;28;6979;-61
2023/12/02 00:16:57;;;;;;;;;;;;;;;25.79;40.28;92445.69;4991364;28;9364;-61
2023/12/02 00:19:24;;;;;;;;;;;;;;;25.79;40.17;92437.44;4984877;28;8155;-62
2023/12/02 00:21:51;;;;;;;;;;;;;;;25.79;40.31;92440.19;4982637;28;7995;-61
2023/12/02 00:24:27;;;;;;;;;;;;;;;25.79;40.27;92447.72;4983557;28;7260;-62
2023/12/02 00:26:55;;;;;;;;;;;;;;;25.76;40.27;92441.31;4975403;28;8791;-61
2023/12/02 00:29:23;;;;;;;;;;;;;;;25.81;39.87;92437.63;4978503;28;7191;-62
2023/12/02 00:31:49;;;;;;;;;;;;;;;25.83;40.16;92448.06;5001305;28;7393;-62
2023/12/02 00:34:19;;;;;;;;;;;;;;;25.83;40.02;92451.56;4988033;28;7245;-61
2023/12/02 00:36:46;;;;;;;;;;;;;;;25.80;39.56;92452.66;4990980;28;7297;-61
2023/12/02 00:39:12;;;;;;;;;;;;;;;25.86;39.63;92449.72;4979093;28;7134;-61
2023/12/02 00:41:41;;;;;;;;;;;;;;;25.87;39.57;92459.41;4980072;28;7832;-61
2023/12/02 00:44:07;;;;;;;;;;;;;;;25.86;39.67;92450.41;4978043;28;7241;-62
2023/12/02 00:46:37;;;;;;;;;;;;;;;25.85;40.09;92454.47;5048301;28;7138;-61
2023/12/02 00:49:03;;;;;;;;;;;;;;;25.80;40.08;92466.44;5077402;28;6999;-62
2023/12/02 00:51:30;;;;;;;;;;;;;;;25.79;39.44;92472.50;5076079;28;8672;-62
2023/12/02 00:54:03;;;;;;;;;;;;;;;25.77;39.62;92469.56;5068674;28;9445;-61
2023/12/02 00:56:36;;;;;;;;;;;;;;;25.75;40.06;92481.13;5073221;28;7312;-62
2023/12/02 00:59:13;;;;;;;;;;;;;;;25.73;39.58;92472.69;5066722;28;7263;-61
2023/12/02 01:01:43;;;;;;;;;;;;;;;25.75;39.67;92478.38;5056323;28;7167;-62
2023/12/02 01:04:42;;;;;;;;;;;;;;;25.73;40.21;92472.69;5056143;28;8920;-62
2023/12/02 01:07:09;;;;;;;;;;;;;;;25.72;39.47;92485.00;5065201;28;7225;-61
2023/12/02 01:09:41;;;;;;;;;;;;;;;25.71;39.77;92482.81;5061881;28;7287;-62
2023/12/02 01:12:07;;;;;;;;;;;;;;;25.69;39.27;92472.34;5069672;28;7284;-60
2023/12/02 01:14:43;;;;;;;;;;;;;;;25.69;39.53;92466.09;5047309;28;9045;-60
2023/12/02 01:17:36;;;;;;;;;;;;;;;25.69;39.87;92471.59;5053225;28;6985;-60
2023/12/02 01:20:19;;;;;;;;;;;;;;;25.64;39.33;92476.06;5000978;28;7894;-60
2023/12/02 01:22:56;;;;;;;;;;;;;;;25.66;40.39;92492.75;4976077;28;9161;-60
2023/12/02 01:25:38;;;;;;;;;;;;;;;25.67;40.31;92487.97;5001271;28;9102;-60
2023/12/02 01:28:06;;;;;;;;;;;;;;;25.67;39.83;92496.22;4986249;28;7022;-60
2023/12/02 01:30:37;;;;;;;;;;;;;;;25.66;39.46;92495.50;5007769;28;9711;-60
2023/12/02 01:33:50;;;;;;;;;;;;;;;25.68;40.26;92508.72;4979683;28;7285;-59
2023/12/02 01:36:49;;;;;;;;;;;;;;;25.64;40.10;92503.59;4996778;28;9096;-60
2023/12/02 01:39:26;;;;;;;;;;;;;;;25.64;39.81;92500.09;4916746;29;9124;-60
2023/12/02 01:41:54;;;;;;;;;;;;;;;25.64;39.48;92500.09;4920672;29;9648;-60
2023/12/02 01:44:20;;;;;;;;;;;;;;;25.59;40.00;92499.00;4932171;29;8119;-60
2023/12/02 01:46:55;;;;;;;;;;;;;;;25.61;39.67;92490.19;4921507;29;7144;-60
2023/12/02 01:49:30;;;;;;;;;;;;;;;25.60;39.84;92494.94;4915650;29;7225;-60
2023/12/02 01:52:05;;;;;;;;;;;;;;;25.60;40.21;92503.22;4913923;29;7679;-60
2023/12/02 01:54:32;;;;;;;;;;;;;;;25.59;40.30;92501.75;4895918;29;9154;-59
2023/12/02 01:57:10;;;;;;;;;;;;;;;25.58;39.43;92508.53;4943521;28;9130;-60
2023/12/02 02:00:09;;;;;;;;;;;;;;;25.61;39.83;92526.72;4980498;28;6996;-60
2023/12/02 02:02:50;;;;;;;;;;;;;;;25.57;39.96;92515.34;4943762;28;6996;-60
2023/12/02 02:05:18;;;;;;;;;;;;;;;25.60;39.65;92516.97;4932874;29;7058;-60
2023/12/02 02:08:03;;;;;;;;;;;;;;;25.58;39.69;92505.78;4939039;29;7504;-60
2023/12/02 02:10:54;;;;;;;;;;;;;;;25.59;39.51;92515.53;4933831;28;7006;-60
2023/12/02 02:13:23;;;;;;;;;;;;;;;25.60;39.62;92516.97;4940174;28;9306;-60
2023/12/02 02:16:05;;;;;;;;;;;;;;;25.61;39.60;92518.47;5022727;28;7483;-60
2023/12/02 02:18:32;;;;;;;;;;;;;;;25.61;39.50;92517.72;4995341;28;7284;-60
2023/12/02 02:21:01;;;;;;;;;;;;;;;25.60;39.32;92522.47;4999846;28;9228;-60
2023/12/02 02:23:36;;;;;;;;;;;;;;;25.59;39.50;92520.28;4996222;28;6903;-62
2023/12/02 02:26:18;;;;;;;;;;;;;;;25.60;39.60;92522.47;4984339;28;7292;-62
2023/12/02 02:28:44;;;;;;;;;;;;;;;25.61;39.40;92528.72;5017230;28;7041;-62
2023/12/02 02:31:57;;;;;;;;;;;;;;;25.60;39.96;92527.28;4994919;28;9105;-62
2023/12/02 02:34:33;;;;;;;;;;;;;;;25.56;39.60;92524.88;4998166;28;7493;-62
2023/12/02 02:37:13;;;;;;;;;;;;;;;25.57;39.36;92515.34;5008728;28;9134;-62
2023/12/02 02:39:47;;;;;;;;;;;;;;;25.56;40.11;92504.88;5038388;28;7297;-62
2023/12/02 02:42:31;;;;;;;;;;;;;;;25.58;39.98;92508.53;5073461;28;8401;-62
2023/12/02 02:44:57;;;;;;;;;;;;;;;25.59;40.04;92514.78;5065847;28;7315;-62
2023/12/02 02:47:23;;;;;;;;;;;;;;;25.56;39.55;92521.41;5072971;28;7228;-62
2023/12/02 02:49:49;;;;;;;;;;;;;;;25.58;39.96;92527.81;5065496;28;7237;-62
2023/12/02 02:52:17;;;;;;;;;;;;;;;25.60;39.49;92536.25;5063895;28;9073;-62
2023/12/02 02:54:58;;;;;;;;;;;;;;;25.59;39.90;92542.31;5060263;28;9446;-61
2023/12/02 02:57:53;;;;;;;;;;;;;;;25.58;40.25;92563.59;5063286;28;8575;-62
2023/12/02 03:00:31;;;;;;;;;;;;;;;25.55;39.70;92567.47;4998422;28;7220;-61
2023/12/02 03:03:29;;;;;;;;;;;;;;;25.56;39.71;92566.19;5015305;28;7186;-61
2023/12/02 03:06:01;;;;;;;;;;;;;;;25.54;39.77;92563.25;4940435;28;7639;-62
2023/12/02 03:08:40;;;;;;;;;;;;;;;25.56;39.58;92560.66;4938814;28;9155;-62
2023/12/02 03:11:13;;;;;;;;;;;;;;;25.58;40.28;92565.66;4950271;28;7267;-62
2023/12/02 03:14:14;;;;;;;;;;;;;;;25.58;39.41;92573.91;4955924;28;7251;-62
2023/12/02 03:16:51;;;;;;;;;;;;;;;25.59;39.56;92569.84;4895869;29;7103;-62
2023/12/02 03:19:33;;;;;;;;;;;;;;;25.60;39.25;92579.59;4909489;29;7270;-62
2023/12/02 03:22:02;;;;;;;;;;;;;;;25.58;40.13;92574.63;4892591;29;7453;-62
2023/12/02 03:24:42;;;;;;;;;;;;;;;25.59;40.15;92564.34;4899080;29;9430;-62
2023/12/02 03:27:20;;;;;;;;;;;;;;;25.56;39.38;92562.69;4915308;29;7203;-62
2023/12/02 03:29:55;;;;;;;;;;;;;;;25.58;39.37;92562.88;4902026;29;7239;-62
2023/12/02 03:32:23;;;;;;;;;;;;;;;25.55;39.66;92567.47;4917560;29;8793;-53
2023/12/02 03:34:58;;;;;;;;;;;;;;;25.57;39.66;92575.91;4915015;29;7351;-53
2023/12/02 03:37:57;;;;;;;;;;;;;;;25.58;40.13;92577.38;4926501;28;7269;-52
2023/12/02 03:40:44;;;;;;;;;;;;;;;25.58;39.41;92591.13;4891070;29;7518;-53
2023/12/02 03:43:39;;;;;;;;;;;;;;;25.55;39.28;92600.50;4928049;29;8512;-53
2023/12/02 03:46:31;;;;;;;;;;;;;;;25.54;40.07;92601.78;4930628;29;7405;-53
2023/12/02 03:49:03;;;;;;;;;;;;;;;25.53;39.88;92611.34;4936506;29;7057;-53
2023/12/02 03:51:44;;;;;;;;;;;;;;;25.52;39.68;92615.38;4940747;28;7399;-53
2023/12/02 03:54:15;;;;;;;;;;;;;;;25.52;39.49;92623.63;4955144;28;7482;-54
2023/12/02 03:56:54;;;;;;;;;;;;;;;25.51;39.75;92618.69;4958647;28;7324;-53
2023/12/02 03:59:20;;;;;;;;;;;;;;;25.51;40.00;92622.19;4958130;28;8258;-51
2023/12/02 04:01:54;;;;;;;;;;;;;;;25.50;39.67;92625.47;4964219;28;9020;-52
2023/12/02 04:04:32;;;;;;;;;;;;;;;25.50;40.22;92631.72;4955559;28;9155;-53
2023/12/02 04:07:11;;;;;;;;;;;;;;;25.50;40.13;92639.97;4963806;28;7740;-53
2023/12/02 04:09:47;;;;;;;;;;;;;;;25.50;40.26;92634.47;4957361;28;8770;-53
2023/12/02 04:12:14;;;;;;;;;;;;;;;25.55;39.37;92632.81;4964952;28;6983;-53
2023/12/02 04:14:51;;;;;;;;;;;;;;;25.57;39.65;92636.47;4945537;28;7226;-52
2023/12/02 04:17:45;;;;;;;;;;;;;;;25.59;39.32;92636.66;4993814;28;8654;-52
2023/12/02 04:20:15;;;;;;;;;;;;;;;25.58;39.72;92635.19;4991391;28;8785;-53
2023/12/02 04:22:49;;;;;;;;;;;;;;;25.58;39.76;92628.97;5028387;28;7267;-53
2023/12/02 04:25:17;;;;;;;;;;;;;;;25.56;39.61;92637.75;5073544;28;7000;-53
2023/12/02 04:27:50;;;;;;;;;;;;;;;25.52;40.11;92634.66;5086141;28;8902;-53
2023/12/02 04:30:16;;;;;;;;;;;;;;;25.51;39.64;92641.44;5065474;28;7005;-53
2023/12/02 04:32:44;;;;;;;;;;;;;;;25.51;39.96;92632.44;5070116;28;7204;-53
2023/12/02 04:35:27;;;;;;;;;;;;;;;25.53;39.54;92638.88;5067397;28;9081;-53
2023/12/02 04:38:13;;;;;;;;;;;;;;;25.52;39.17;92648.41;5058493;28;7282;-53
2023/12/02 04:41:13;;;;;;;;;;;;;;;25.52;39.57;92653.91;5086693;28;8757;-53
2023/12/02 04:43:48;;;;;;;;;;;;;;;25.51;39.85;92668.25;5069967;28;7235;-53
2023/12/02 04:46:24;;;;;;;;;;;;;;;25.51;40.12;92660.72;5072218;28;7273;-53
2023/12/02 04:49:17;;;;;;;;;;;;;;;25.50;40.37;92675.00;5069952;28;7268;-53
2023/12/02 04:51:45;;;;;;;;;;;;;;;25.49;39.67;92674.28;5000339;28;7290;-53
2023/12/02 04:54:28;;;;;;;;;;;;;;;25.50;40.27;92673.00;5015206;28;9616;-53
2023/12/02 04:57:44;;;;;;;;;;;;;;;25.50;40.27;92681.25;5012866;28;9672;-53
2023/12/02 05:00:14;;;;;;;;;;;;;;;25.49;39.31;92682.53;4993896;28;7771;-52
2023/12/02 05:02:43;;;;;;;;;;;;;;;25.49;39.62;92681.81;5026114;28;9010;-52
2023/12/02 05:05:18;;;;;;;;;;;;;;;25.49;39.86;92688.03;5014636;28;9101;-52
2023/12/02 05:07:45;;;;;;;;;;;;;;;25.50;39.78;92686.03;5012488;28;7553;-52
2023/12/02 05:10:13;;;;;;;;;;;;;;;25.51;40.25;92682.00;5021539;28;6977;-53
2023/12/02 05:12:44;;;;;;;;;;;;;;;25.49;39.53;92682.53;5014474;28;9015;-53
2023/12/02 05:15:12;;;;;;;;;;;;;;;25.55;39.93;92677.59;4996439;28;7321;-52
2023/12/02 05:17:43;;;;;;;;;;;;;;;25.54;39.15;92673.38;5020848;28;7395;-53
2023/12/02 05:20:27;;;;;;;;;;;;;;;25.53;40.19;92671.91;5021878;28;9066;-51
2023/12/02 05:23:23;;;;;;;;;;;;;;;25.51;39.55;92674.47;4995818;28;7190;-52
2023/12/02 05:25:51;;;;;;;;;;;;;;;25.52;39.41;92669.69;4973214;28;7347;-48
2023/12/02 05:28:29;;;;;;;;;;;;;;;25.51;39.30;92685.50;4972328;28;7346;-53
2023/12/02 05:31:06;;;;;;;;;;;;;;;25.51;39.72;92684.75;5011797;28;7407;-52
2023/12/02 05:33:39;;;;;;;;;;;;;;;25.51;40.20;92680.00;5011663;28;7430;-54
2023/12/02 05:36:09;;;;;;;;;;;;;;;25.54;39.31;92687.13;5008141;28;9161;-52
2023/12/02 05:39:05;;;;;;;;;;;;;;;25.55;39.38;92691.34;4994728;28;7230;-51
2023/12/02 05:41:43;;;;;;;;;;;;;;;25.55;39.84;92705.13;4948945;28;7245;-52
2023/12/02 05:44:14;;;;;;;;;;;;;;;25.55;39.86;92713.38;4952467;28;7042;-54
2023/12/02 05:46:43;;;;;;;;;;;;;;;25.57;39.86;92723.84;4955917;28;7445;-51
2023/12/02 05:49:42;;;;;;;;;;;;;;;25.54;40.15;92727.69;4953103;28;9192;-53
2023/12/02 05:52:08;;;;;;;;;;;;;;;25.51;40.05;92732.28;4904957;29;7811;-60
2023/12/02 05:54:36;;;;;;;;;;;;;;;25.54;41.79;92739.44;4904085;29;7276;-60
2023/12/02 05:57:04;;;;;;;;;;;;;;;25.58;40.67;92741.84;4900249;29;7242;-60
2023/12/02 05:59:41;;;;;;;;;;;;;;;25.61;40.50;92746.97;4903897;29;8739;-60
2023/12/02 06:02:14;;;;;;;;;;;;;;;25.66;40.28;92756.34;4901550;29;7588;-60
2023/12/02 06:04:42;;;;;;;;;;;;;;;25.69;39.58;92753.19;4909161;29;7519;-60
2023/12/02 06:07:28;;;;;;;;;;;;;;;25.68;40.05;92754.50;4895633;29;7437;-60
2023/12/02 06:09:55;;;;;;;;;;;;;;;25.68;39.50;92760.00;4903841;29;8728;-60
2023/12/02 06:12:22;;;;;;;;;;;;;;;25.71;39.72;92764.41;4903774;29;6971;-60
2023/12/02 06:14:48;;;;;;;;;;;;;;;25.69;39.59;92766.22;4877484;29;6857;-60
2023/12/02 06:17:14;;;;;;;;;;;;;;;25.64;39.95;92762.41;4918496;28;7209;-60
2023/12/02 06:19:41;;;;;;;;;;;;;;;25.68;39.59;92776.53;4955603;28;7161;-59
2023/12/02 06:22:36;;;;;;;;;;;;;;;25.68;39.50;92776.53;4967506;28;7310;-60
2023/12/02 06:25:11;;;;;;;;;;;;;;;25.67;40.31;92775.03;4907857;29;7337;-60
2023/12/02 06:27:39;;;;;;;;;;;;;;;25.67;40.35;92766.78;4929673;28;7472;-60
2023/12/02 06:30:07;;;;;;;;;;;;;;;25.66;40.10;92776.34;4986763;28;7162;-60
2023/12/02 06:32:36;;;;;;;;;;;;;;;25.67;39.48;92788.81;4966572;28;7280;-59
2023/12/02 06:35:04;;;;;;;;;;;;;;;25.71;39.71;92788.47;4980053;28;9196;-60
2023/12/02 06:37:35;;;;;;;;;;;;;;;25.68;40.24;92784.78;4975668;28;9131;-60
2023/12/02 06:40:05;;;;;;;;;;;;;;;25.70;40.00;92790.47;4970196;28;7483;-60
2023/12/02 06:42:34;;;;;;;;;;;;;;;25.69;39.76;92797.25;4991267;28;7264;-59
2023/12/02 06:45:00;;;;;;;;;;;;;;;25.68;39.98;92801.31;4989924;28;7115;-60
2023/12/02 06:47:28;;;;;;;;;;;;;;;25.67;39.79;92799.84;4974998;28;7267;-60
2023/12/02 06:49:57;;;;;;;;;;;;;;;25.75;40.10;92799.84;4978814;28;7258;-60
2023/12/02 06:52:23;;;;;;;;;;;;;;;25.72;39.67;92806.44;4975104;28;7258;-60
2023/12/02 06:54:48;;;;;;;;;;;;;;;25.69;40.06;92804.78;4981822;28;8694;-60
2023/12/02 06:57:15;;;;;;;;;;;;;;;25.72;39.76;92803.69;4983898;28;9220;-60
2023/12/02 06:59:45;;;;;;;;;;;;;;;25.70;39.56;92812.50;4976771;28;7018;-60
2023/12/02 07:02:12;;;;;;;;;;;;;;;25.65;40.12;92813.41;5030138;28;9006;-62
2023/12/02 07:04:38;;;;;;;;;;;;;;;25.66;39.50;92814.91;5051039;28;6968;-62
2023/12/02 07:07:05;;;;;;;;;;;;;;;25.69;39.59;92821.31;5056767;28;9179;-62
2023/12/02 07:09:32;;;;;;;;;;;;;;;25.73;40.00;92827.91;5049216;28;7040;-62
2023/12/02 07:11:58;;;;;;;;;;;;;;;25.77;39.49;92830.31;5067766;28;9378;-62
2023/12/02 07:14:24;;;;;;;;;;;;;;;25.71;39.71;92829.78;5073658;28;9243;-62
2023/12/02 07:16:54;;;;;;;;;;;;;;;25.71;39.73;92840.78;5061911;28;9158;-62
2023/12/02 07:19:21;;;;;;;;;;;;;;;25.70;39.49;92837.28;5051485;28;8728;-62
2023/12/02 07:21:51;;;;;;;;;;;;;;;25.72;39.79;92854.00;5056899;28;9062;-62
2023/12/02 07:24:18;;;;;;;;;;;;;;;25.71;39.59;92857.31;5073095;28;7242;-62
2023/12/02 07:26:45;;;;;;;;;;;;;;;25.70;40.02;92875.84;5076824;28;7242;-62
2023/12/02 07:29:12;;;;;;;;;;;;;;;25.74;40.05;92881.72;5068718;28;7200;-62
2023/12/02 07:31:43;;;;;;;;;;;;;;;25.72;39.85;92887.03;5068966;28;9111;-62
2023/12/02 07:34:13;;;;;;;;;;;;;;;25.74;39.60;92886.50;5078927;28;7248;-62
2023/12/02 07:36:39;;;;;;;;;;;;;;;25.74;39.84;92890.00;5056584;28;6975;-62
2023/12/02 07:39:11;;;;;;;;;;;;;;;25.75;39.72;92894.19;5070924;28;8378;-62
2023/12/02 07:41:37;;;;;;;;;;;;;;;25.75;39.64;92901.75;5065634;28;7192;-62
2023/12/02 07:44:05;;;;;;;;;;;;;;;25.74;39.51;92897.50;5060565;28;7052;-62
2023/12/02 07:46:33;;;;;;;;;;;;;;;25.72;39.60;92900.81;5068654;28;7220;-62
2023/12/02 07:49:06;;;;;;;;;;;;;;;25.70;39.85;92906.13;5059834;28;9262;-62
2023/12/02 07:51:39;;;;;;;;;;;;;;;25.77;39.61;92910.19;5071382;28;6968;-62
2023/12/02 07:54:08;;;;;;;;;;;;;;;25.79;40.50;92915.88;5088541;28;7514;-62
2023/12/02 07:56:43;;;;;;;;;;;;;;;25.74;40.23;92903.75;5062757;28;7247;-62
2023/12/02 07:59:35;;;;;;;;;;;;;;;25.80;39.66;92920.84;5084973;28;9039;-62
2023/12/02 08:02:34;;;;;;;;;;;;;;;25.77;40.21;92921.94;5004600;28;7307;-62
2023/12/02 08:05:01;;;;;;;;;;;;;;;25.79;40.26;92932.41;4968502;28;7110;-62
2023/12/02 08:07:27;;;;;;;;;;;;;;;25.82;40.10;92942.31;4963553;28;9141;-62
2023/12/02 08:10:23;;;;;;;;;;;;;;;25.86;39.60;92943.44;4953095;28;7297;-61
2023/12/02 08:13:00;;;;;;;;;;;;;;;25.91;39.44;92948.03;4866571;29;8745;-55
2023/12/02 08:15:26;;;;;;;;;;;;;;;25.90;39.50;92957.59;4860418;29;6994;-56
2023/12/02 08:18:04;;;;;;;;;;;;;;;25.91;39.22;92964.56;4862081;29;8977;-55
2023/12/02 08:20:41;;;;;;;;;;;;;;;25.90;39.56;92959.63;4854943;29;7251;-55
2023/12/02 08:23:16;;;;;;;;;;;;;;;25.91;39.63;92961.81;4858887;29;7620;-55
2023/12/02 08:26:14;;;;;;;;;;;;;;;25.93;39.46;92973.03;4859413;29;7255;-56
2023/12/02 08:28:54;;;;;;;;;;;;;;;25.95;39.67;92983.50;4858347;29;7932;-55
2023/12/02 08:31:24;;;;;;;;;;;;;;;25.93;39.46;92981.28;4842937;29;7511;-55
2023/12/02 08:33:50;;;;;;;;;;;;;;;25.96;39.22;92987.72;4827890;29;7171;-55
2023/12/02 08:36:17;;;;;;;;;;;;;;;25.96;38.96;92984.97;4851344;29;7287;-55
2023/12/02 08:38:47;;;;;;;;;;;;;;;25.96;39.44;92984.97;4853815;29;9550;-55
2023/12/02 08:41:23;;;;;;;;;;;;;;;25.97;39.54;92980.94;4887806;29;7123;-55
2023/12/02 08:44:16;;;;;;;;;;;;;;;25.97;39.49;92989.94;4902896;29;7235;-56
2023/12/02 08:46:42;;;;;;;;;;;;;;;25.96;39.14;92990.47;4900136;29;6994;-56
2023/12/02 08:49:10;;;;;;;;;;;;;;;25.96;38.80;92996.75;4925175;28;7596;-55
2023/12/02 08:52:14;;;;;;;;;;;;;;;25.96;39.27;92996.00;4972936;28;6959;-55
2023/12/02 08:54:59;;;;;;;;;;;;;;;25.94;39.14;92999.31;4923264;29;7170;-55
2023/12/02 08:57:44;;;;;;;;;;;;;;;25.92;38.61;93007.38;4916660;29;7109;-55
2023/12/02 09:00:27;;;;;;;;;;;;;;;25.91;38.73;93008.66;4916853;29;7070;-55
2023/12/02 09:03:17;;;;;;;;;;;;;;;25.91;39.23;93016.91;4930057;29;9212;-55
2023/12/02 09:05:45;;;;;;;;;;;;;;;25.91;38.67;93018.94;5006854;28;9110;-55
2023/12/02 09:08:15;;;;;;;;;;;;;;;25.88;39.27;93020.75;4987572;28;6996;-55
2023/12/02 09:10:52;;;;;;;;;;;;;;;25.91;39.30;93036.19;4994841;28;7412;-55
2023/12/02 09:13:37;;;;;;;;;;;;;;;25.91;38.83;93035.47;4994768;28;7214;-55
2023/12/02 09:16:20;;;;;;;;;;;;;;;25.90;39.41;93042.97;4998544;28;7253;-55
2023/12/02 09:18:56;;;;;;;;;;;;;;;25.93;39.09;93044.66;4997993;28;9082;-55
2023/12/02 09:21:44;;;;;;;;;;;;;;;25.94;38.92;93048.16;5002647;28;7252;-55
2023/12/02 09:24:35;;;;;;;;;;;;;;;25.94;38.80;93050.91;4991843;28;6976;-53
2023/12/02 09:30:59;;;;;;;;;;;;;;;25.89;39.26;93066.31;5053669;28;7000;-53
2023/12/02 09:33:35;;;;;;;;;;;;;;;25.90;39.22;93080.81;5047385;28;7510;-52
2023/12/02 09:36:39;;;;;;;;;;;;;;;25.91;39.42;93085.78;5066763;28;8743;-53
2023/12/02 09:39:09;;;;;;;;;;;;;;;25.92;39.24;93087.28;5060979;28;8831;-54
2023/12/02 09:41:48;;;;;;;;;;;;;;;25.89;38.93;93082.84;5062632;28;7219;-53
2023/12/02 09:44:29;;;;;;;;;;;;;;;25.92;39.70;93094.78;5057414;28;7003;-54
2023/12/02 09:47:17;;;;;;;;;;;;;;;25.92;39.51;93095.53;5060100;28;7207;-53
2023/12/02 09:50:11;;;;;;;;;;;;;;;25.94;39.02;93106.00;5065883;28;9178;-53
2023/12/02 09:53:03;;;;;;;;;;;;;;;25.93;39.27;93116.28;5063650;28;7118;-53
2023/12/02 09:55:56;;;;;;;;;;;;;;;25.92;39.19;93108.56;5059021;28;7288;-52
2023/12/02 09:58:26;;;;;;;;;;;;;;;25.96;39.17;93119.97;5066110;28;7575;-53
2023/12/02 10:01:31;;;;;;;;;;;;;;;25.94;38.83;93120.53;5054365;28;7351;-54
2023/12/02 10:04:33;;;;;;;;;;;;;;;25.95;39.02;93118.47;5054937;28;7192;-53
2023/12/02 10:07:02;;;;;;;;;;;;;;;25.95;38.43;93119.22;4995494;28;7253;-53
2023/12/02 10:09:44;;;;;;;;;;;;;;;25.96;38.23;93133.75;4985725;28;7304;-53
2023/12/02 10:13:00;;;;;;;;;;;;;;;25.90;39.13;93131.13;4992965;28;6995;-53
2023/12/02 10:15:32;;;;;;;;;;;;;;;25.88;38.71;93133.69;4922367;28;7110;-53
2023/12/02 10:18:12;;;;;;;;;;;;;;;25.88;38.99;93144.72;4939541;28;9221;-52
2023/12/02 10:21:01;;;;;;;;;;;;;;;25.90;38.50;93142.16;4935585;29;6989;-54
2023/12/02 10:23:55;;;;;;;;;;;;;;;25.91;38.53;93143.63;4933959;29;7308;-53
2023/12/02 10:27:10;;;;;;;;;;;;;;;25.93;38.95;93154.84;4923322;29;7277;-51
2023/12/02 10:30:25;;;;;;;;;;;;;;;25.94;39.20;93150.09;4930183;29;9681;-53
2023/12/02 10:33:03;;;;;;;;;;;;;;;25.85;38.81;93158.84;4918504;29;7265;-55
2023/12/02 10:35:42;;;;;;;;;;;;;;;25.82;38.74;93155.16;4936651;29;9107;-55
2023/12/02 10:38:32;;;;;;;;;;;;;;;25.83;38.61;93153.13;4942545;29;7239;-55
2023/12/02 10:41:09;;;;;;;;;;;;;;;25.89;39.03;93153.72;4925104;29;7181;-55
2023/12/02 10:43:44;;;;;;;;;;;;;;;25.88;38.69;93155.72;5005075;28;7287;-54
2023/12/02 10:46:22;;;;;;;;;;;;;;;25.83;39.51;93162.16;5004770;28;7470;-55
2023/12/02 10:48:59;;;;;;;;;;;;;;;25.83;39.04;93151.13;5014206;28;9180;-55
2023/12/02 10:52:19;;;;;;;;;;;;;;;25.91;39.41;93160.16;5064822;28;9183;-55
2023/12/02 10:54:52;;;;;;;;;;;;;;;25.92;39.84;93163.66;5172259;23;7674;-63
2023/12/02 10:57:21;;;;;;;;;;;;;;;25.93;39.76;93165.88;4989344;28;7215;-63
2023/12/02 11:00:11;;;;;;;;;;;;;;;25.96;39.60;93175.81;4990896;28;7171;-64
2023/12/02 11:03:02;;;;;;;;;;;;;;;25.97;40.03;93177.28;4991626;28;7273;-64
2023/12/02 11:05:49;;;;;;;;;;;;;;;25.98;39.31;93178.75;5010007;28;8814;-63
2023/12/02 11:09:02;;;;;;;;;;;;;;;25.99;39.39;93187.78;4993410;28;7438;-64
2023/12/02 11:11:32;;;;;;;;;;;;;;;25.97;39.33;93182.78;4972254;28;7442;-64
2023/12/02 11:14:00;;;;;;;;;;;;;;;25.97;39.98;93182.78;4976256;28;7242;-64
2023/12/02 11:20:38;;;;;;;;;;;;;;;25.99;39.32;93180.22;4972189;28;7296;-64
2023/12/02 11:23:55;;;;;;;;;;;;;;;26.00;39.95;93183.72;4935251;28;7191;-64
2023/12/02 11:27:09;;;;;;;;;;;;;;;26.00;39.63;93198.25;4946848;28;8843;-64
2023/12/02 11:29:54;;;;;;;;;;;;;;;25.99;39.32;93188.50;4944306;28;9058;-65
2023/12/02 11:32:42;;;;;;;;;;;;;;;25.98;38.53;93187.03;4947007;28;7401;-64
2023/12/02 11:35:24;;;;;;;;;;;;;;;26.03;38.50;93196.44;4936755;28;7251;-64
2023/12/02 11:38:16;;;;;;;;;;;;;;;26.02;38.46;93201.19;4935053;28;7214;-64
2023/12/02 11:41:08;;;;;;;;;;;;;;;26.01;38.94;93210.72;4946387;28;7312;-64
2023/12/02 11:43:41;;;;;;;;;;;;;;;26.03;38.51;93215.72;4949609;28;7571;-64
2023/12/02 11:46:23;;;;;;;;;;;;;;;26.02;38.71;93228.00;4924671;28;8771;-64
2023/12/02 11:49:31;;;;;;;;;;;;;;;26.01;39.11;93221.75;4948594;28;7223;-64
2023/12/02 11:52:20;;;;;;;;;;;;;;;25.98;38.76;93228.34;4948605;28;7235;-64
2023/12/02 11:55:26;;;;;;;;;;;;;;;26.00;39.20;93236.81;4927909;28;6863;-64
2023/12/02 11:58:44;;;;;;;;;;;;;;;25.98;39.65;93231.13;4932906;28;8791;-64
2023/12/02 12:01:31;;;;;;;;;;;;;;;25.99;39.55;93246.34;4932597;29;8749;-65
2023/12/02 12:04:44;;;;;;;;;;;;;;;26.00;38.92;93253.34;4935549;28;9481;-63
2023/12/02 12:08:06;;;;;;;;;;;;;;;25.97;39.59;93251.66;4935930;28;7220;-63
2023/12/02 12:10:41;;;;;;;;;;;;;;;26.00;39.04;93269.13;4901620;29;7531;-64
2023/12/02 12:13:11;;;;;;;;;;;;;;;25.99;39.31;93268.38;4896689;29;7604;-64
2023/12/02 12:15:38;;;;;;;;;;;;;;;25.96;39.56;93277.75;4901097;29;9083;-62
2023/12/02 12:18:08;;;;;;;;;;;;;;;25.96;39.70;93282.53;4898571;29;7371;-62
2023/12/02 12:20:36;;;;;;;;;;;;;;;25.92;39.20;93288.38;4891151;29;7264;-62
2023/12/02 12:23:22;;;;;;;;;;;;;;;25.94;39.13;93294.09;4881842;29;7243;-62
2023/12/02 12:25:59;;;;;;;;;;;;;;;25.92;39.24;93293.88;4894395;29;7049;-62
2023/12/02 12:28:39;;;;;;;;;;;;;;;25.98;39.35;93296.50;4896388;29;7656;-63
2023/12/02 12:31:10;;;;;;;;;;;;;;;26.00;39.80;93299.44;4897510;29;9109;-63
2023/12/02 12:33:53;;;;;;;;;;;;;;;26.01;40.05;93309.91;4904924;29;7231;-63
2023/12/02 12:36:32;;;;;;;;;;;;;;;26.01;40.00;93312.66;4894081;29;7225;-63
2023/12/02 12:39:11;;;;;;;;;;;;;;;26.02;39.43;93327.19;4898065;29;7234;-63
2023/12/02 12:41:41;;;;;;;;;;;;;;;26.02;39.72;93327.94;4945943;28;9118;-63
2023/12/02 12:44:08;;;;;;;;;;;;;;;26.03;38.99;93331.44;4988268;28;7003;-63
2023/12/02 12:46:34;;;;;;;;;;;;;;;26.03;39.85;93334.91;4996735;28;7072;-63
2023/12/02 12:49:07;;;;;;;;;;;;;;;26.03;39.77;93334.19;4989401;28;7305;-63
2023/12/02 12:51:40;;;;;;;;;;;;;;;26.06;39.17;93344.13;4968535;28;7140;-63
2023/12/02 12:54:22;;;;;;;;;;;;;;;26.02;40.12;93344.47;4989617;28;9185;-63
2023/12/02 12:57:01;;;;;;;;;;;;;;;26.05;39.94;93354.44;4970180;28;6994;-63
2023/12/02 12:59:33;;;;;;;;;;;;;;;26.06;39.27;93360.66;4989188;28;7359;-63
2023/12/02 13:02:09;;;;;;;;;;;;;;;26.03;40.36;93362.47;4973642;28;9144;-63
2023/12/02 13:04:57;;;;;;;;;;;;;;;26.04;39.67;93377.00;4953247;28;6932;-63
2023/12/02 13:08:04;;;;;;;;;;;;;;;26.06;39.40;93371.69;4991328;28;8909;-63
2023/12/02 13:10:35;;;;;;;;;;;;;;;26.07;39.70;93373.91;4908176;29;7529;-63
2023/12/02 13:13:13;;;;;;;;;;;;;;;26.05;39.44;93376.47;4919575;29;7429;-55
2023/12/02 13:15:44;;;;;;;;;;;;;;;26.04;40.21;93383.25;4969167;23;9242;-84
2023/12/02 13:18:11;;;;;;;;;;;;;;;26.09;39.96;93389.94;4982273;28;6874;-83
2023/12/02 13:20:42;;;;;;;;;;;;;;;26.02;39.95;93390.56;4990810;28;8973;-83
2023/12/02 13:23:12;;;;;;;;;;;;;;;26.05;39.84;93406.78;4968781;28;8591;-83
2023/12/02 13:25:40;;;;;;;;;;;;;;;26.06;39.66;93410.25;4996255;28;8606;-83
2023/12/02 13:28:22;;;;;;;;;;;;;;;26.10;40.05;93413.44;4988609;28;9082;-83
2023/12/02 13:30:51;;;;;;;;;;;;;;;26.06;40.14;93413.75;4969745;28;8820;-83
2023/12/02 13:33:38;;;;;;;;;;;;;;;26.11;40.05;93426.72;4988434;28;9219;-83
2023/12/02 13:36:14;;;;;;;;;;;;;;;26.08;40.28;93427.78;4973333;28;8750;-84
2023/12/02 13:39:05;;;;;;;;;;;;;;;26.13;40.18;93443.44;4988242;28;8804;-83
2023/12/02 13:41:47;;;;;;;;;;;;;;;26.15;40.17;93440.13;4983119;28;7475;-82
2023/12/02 13:44:22;;;;;;;;;;;;;;;26.12;40.24;93444.00;4982787;28;8747;-83
2023/12/02 13:47:08;;;;;;;;;;;;;;;26.11;39.86;93446.00;4972374;28;8808;-83
2023/12/02 13:49:45;;;;;;;;;;;;;;;26.09;39.64;93456.81;4968838;28;9499;-83
2023/12/02 13:52:55;;;;;;;;;;;;;;;26.08;39.78;93452.56;4995081;28;6864;-82
2023/12/02 13:55:38;;;;;;;;;;;;;;;26.07;39.92;93467.63;4972590;28;8487;-83
2023/12/02 13:58:22;;;;;;;;;;;;;;;26.05;40.29;93469.41;4984937;28;9072;-83
2023/12/02 14:01:07;;;;;;;;;;;;;;;26.05;40.03;93467.41;4982171;28;8868;-84
2023/12/02 14:03:56;;;;;;;;;;;;;;;26.08;40.73;93485.63;4978330;28;9251;-83